createdAt,value
2023-04-24T00:01:20.522Z,14.00
2023-04-24T00:03:49.407Z,14.00
2023-04-24T00:06:18.927Z,14.00
2023-04-24T00:08:48.856Z,14.00
2023-04-24T00:11:17.426Z,14.00
2023-04-24T00:13:46.023Z,14.10
2023-04-24T00:16:14.552Z,14.10
2023-04-24T00:18:43.290Z,14.10
2023-04-24T00:21:11.861Z,14.20
2023-04-24T00:23:40.490Z,14.20
2023-04-24T00:26:10.423Z,14.20
2023-04-24T00:28:39.103Z,14.20
2023-04-24T00:31:07.630Z,14.20
2023-04-24T00:33:36.210Z,14.20
2023-04-24T00:36:05.047Z,14.20
2023-04-24T00:38:33.632Z,14.20
2023-04-24T00:41:02.321Z,14.20
2023-04-24T00:43:32.481Z,14.20
2023-04-24T00:46:02.851Z,14.10
2023-04-24T00:48:32.874Z,14.10
2023-04-24T00:51:01.716Z,14.10
2023-04-24T00:53:30.224Z,14.10
2023-04-24T00:55:59.083Z,14.00
2023-04-24T00:58:27.982Z,14.00
2023-04-24T01:00:59.215Z,14.00
2023-04-24T01:03:32.732Z,14.00
2023-04-24T01:06:01.887Z,13.90
2023-04-24T01:08:31.809Z,13.90
2023-04-24T01:11:00.533Z,13.90
2023-04-24T01:13:29.869Z,13.90
2023-04-24T01:16:00.476Z,13.90
2023-04-24T01:18:29.924Z,13.90
2023-04-24T01:21:01.014Z,13.90
2023-04-24T01:23:31.014Z,13.90
2023-04-24T01:25:59.886Z,13.90
2023-04-24T01:28:28.585Z,14.00
2023-04-24T01:30:57.871Z,14.10
2023-04-24T01:33:26.520Z,14.10
2023-04-24T01:35:55.850Z,14.10
2023-04-24T01:38:24.473Z,14.10
2023-04-24T01:40:54.904Z,14.10
2023-04-24T01:43:23.836Z,14.00
2023-04-24T01:45:52.422Z,14.00
2023-04-24T01:48:21.412Z,14.00
2023-04-24T01:50:50.043Z,14.00
2023-04-24T01:53:18.711Z,14.00
2023-04-24T01:55:47.227Z,14.00
2023-04-24T01:58:17.190Z,14.00
2023-04-24T02:00:45.763Z,14.00
2023-04-24T02:03:14.377Z,14.00
2023-04-24T02:05:45.634Z,14.10
2023-04-24T02:08:14.304Z,14.10
2023-04-24T02:10:42.910Z,14.10
2023-04-24T02:13:11.607Z,14.10
2023-04-24T02:15:41.613Z,14.20
2023-04-24T02:18:11.184Z,14.20
2023-04-24T02:20:39.894Z,14.30
2023-04-24T02:23:08.449Z,14.40
2023-04-24T02:25:37.185Z,14.50
2023-04-24T02:28:05.799Z,14.50
2023-04-24T02:30:36.543Z,14.60
2023-04-24T02:36:27.633Z,14.60
2023-04-24T02:38:56.221Z,14.60
2023-04-24T02:41:24.860Z,14.60
2023-04-24T02:43:53.335Z,14.60
2023-04-24T02:46:21.987Z,14.60
2023-04-24T02:48:50.698Z,14.60
2023-04-24T02:51:19.357Z,14.60
2023-04-24T02:53:49.396Z,14.60
2023-04-24T02:56:18.013Z,14.60
2023-04-24T02:58:46.755Z,14.60
2023-04-24T03:01:15.826Z,14.60
2023-04-24T03:03:44.610Z,14.60
2023-04-24T03:06:13.283Z,14.60
2023-04-24T03:08:41.853Z,14.60
2023-04-24T03:11:11.761Z,14.70
2023-04-24T03:13:40.291Z,14.70
2023-04-24T03:16:08.874Z,14.70
2023-04-24T03:18:37.519Z,14.70
2023-04-24T03:21:07.988Z,14.70
2023-04-24T03:23:36.973Z,14.70
2023-04-24T03:26:06.470Z,14.70
2023-04-24T03:28:39.309Z,14.60
2023-04-24T03:31:07.988Z,14.60
2023-04-24T03:33:38.558Z,14.60
2023-04-24T03:36:09.499Z,14.50
2023-04-24T03:38:41.750Z,14.50
2023-04-24T03:41:29.753Z,14.40
2023-04-24T03:44:12.488Z,14.40
2023-04-24T03:46:41.179Z,14.30
2023-04-24T03:49:09.870Z,14.20
2023-04-24T03:51:42.776Z,14.20
2023-04-24T03:54:19.164Z,14.20
2023-04-24T03:56:48.102Z,14.10
2023-04-24T03:59:18.219Z,14.10
2023-04-24T04:01:51.534Z,14.10
2023-04-24T04:04:20.367Z,14.00
2023-04-24T04:06:49.124Z,14.00
2023-04-24T04:09:17.950Z,13.90
2023-04-24T04:11:47.791Z,13.90
2023-04-24T04:14:17.723Z,13.90
2023-04-24T04:16:50.615Z,13.80
2023-04-24T04:19:20.540Z,13.80
2023-04-24T04:21:53.218Z,13.80
2023-04-24T04:24:48.108Z,13.70
2023-04-24T04:27:17.708Z,13.70
2023-04-24T04:30:05.870Z,13.60
2023-04-24T04:32:42.508Z,13.60
2023-04-24T04:35:11.368Z,13.60
2023-04-24T04:37:41.138Z,13.60
2023-04-24T04:40:33.218Z,13.60
2023-04-24T04:43:05.676Z,13.60
2023-04-24T04:45:45.994Z,13.50
2023-04-24T04:48:29.942Z,13.50
2023-04-24T04:51:01.299Z,13.50
2023-04-24T04:53:30.733Z,13.60
2023-04-24T04:56:00.663Z,13.60
2023-04-24T04:58:35.898Z,13.60
2023-04-24T05:01:07.960Z,13.60
2023-04-24T05:03:42.517Z,13.70
2023-04-24T05:06:14.646Z,13.70
2023-04-24T05:08:43.587Z,13.80
2023-04-24T05:11:19.323Z,13.80
2023-04-24T05:14:03.968Z,14.00
2023-04-24T05:16:41.133Z,14.10
2023-04-24T05:19:12.847Z,14.20
2023-04-24T05:21:43.512Z,14.30
2023-04-24T05:24:13.216Z,14.40
2023-04-24T05:26:48.941Z,14.40
2023-04-24T05:29:22.426Z,14.40
2023-04-24T05:31:52.400Z,14.40
2023-04-24T05:34:21.044Z,14.40
2023-04-24T05:36:54.636Z,14.40
2023-04-24T05:39:23.187Z,14.40
2023-04-24T05:41:51.673Z,14.30
2023-04-24T05:44:20.196Z,14.30
2023-04-24T05:46:48.990Z,14.30
2023-04-24T05:49:19.922Z,14.30
2023-04-24T05:51:49.573Z,14.30
2023-04-24T05:54:19.668Z,14.30
2023-04-24T05:56:48.467Z,14.30
2023-04-24T05:59:24.001Z,14.40
2023-04-24T06:01:54.234Z,14.40
2023-04-24T06:04:26.215Z,14.40
2023-04-24T06:06:57.079Z,14.40
2023-04-24T06:09:26.215Z,14.40
2023-04-24T06:11:54.913Z,14.40
2023-04-24T06:14:29.032Z,14.50
2023-04-24T06:17:22.463Z,14.60
2023-04-24T06:19:53.570Z,14.70
2023-04-24T06:22:24.261Z,14.80
2023-04-24T06:24:52.993Z,14.90
2023-04-24T06:27:21.646Z,15.10
2023-04-24T06:29:55.284Z,15.20
2023-04-24T06:32:25.292Z,15.40
2023-04-24T06:34:55.441Z,15.50
2023-04-24T06:37:24.015Z,15.70
2023-04-24T06:39:52.586Z,15.80
2023-04-24T06:42:21.948Z,15.90
2023-04-24T06:44:52.431Z,15.90
2023-04-24T06:47:21.169Z,15.90
2023-04-24T06:49:51.951Z,15.90
2023-04-24T06:52:22.254Z,15.90
2023-04-24T06:54:50.975Z,15.80
2023-04-24T06:57:19.958Z,15.80
2023-04-24T06:59:48.587Z,15.90
2023-04-24T07:02:17.430Z,16.00
2023-04-24T07:04:46.752Z,16.10
2023-04-24T07:07:15.515Z,16.20
2023-04-24T07:09:46.693Z,16.20
2023-04-24T07:12:15.509Z,16.40
2023-04-24T07:14:45.751Z,16.50
2023-04-24T07:17:14.887Z,16.60
2023-04-24T07:19:44.271Z,16.70
2023-04-24T07:22:17.868Z,16.80
2023-04-24T07:24:47.991Z,16.80
2023-04-24T07:27:16.522Z,16.90
2023-04-24T07:29:45.724Z,17.00
2023-04-24T07:32:14.472Z,17.00
2023-04-24T07:34:43.105Z,17.00
2023-04-24T07:37:11.640Z,17.10
2023-04-24T07:39:40.282Z,17.20
2023-04-24T07:42:10.138Z,17.40
2023-04-24T07:44:38.729Z,17.60
2023-04-24T07:47:07.398Z,17.80
2023-04-24T07:49:36.219Z,18.00
2023-04-24T07:52:04.919Z,18.30
2023-04-24T07:54:33.550Z,18.50
2023-04-24T07:57:02.137Z,18.90
2023-04-24T07:59:32.135Z,19.00
2023-04-24T08:02:02.366Z,19.10
2023-04-24T08:04:31.114Z,19.20
2023-04-24T08:06:59.914Z,19.20
2023-04-24T08:09:28.570Z,19.10
2023-04-24T08:11:57.678Z,19.10
2023-04-24T08:14:26.284Z,19.20
2023-04-24T08:16:57.338Z,19.30
2023-04-24T08:19:26.600Z,19.40
2023-04-24T08:21:55.100Z,19.40
2023-04-24T08:24:25.587Z,19.20
2023-04-24T08:26:55.167Z,19.10
2023-04-24T08:29:23.759Z,18.90
2023-04-24T08:31:52.400Z,19.10
2023-04-24T08:34:22.443Z,19.00
2023-04-24T08:36:51.248Z,18.80
2023-04-24T08:39:20.305Z,18.90
2023-04-24T08:41:51.215Z,19.00
2023-04-24T08:44:21.777Z,18.80
2023-04-24T08:46:52.478Z,18.80
2023-04-24T08:49:22.960Z,18.70
2023-04-24T08:51:52.849Z,18.60
2023-04-24T08:54:21.719Z,18.40
2023-04-24T08:56:51.188Z,18.50
2023-04-24T08:59:20.436Z,18.50
2023-04-24T09:01:50.535Z,18.40
2023-04-24T09:04:21.195Z,18.50
2023-04-24T09:06:51.931Z,18.60
2023-04-24T09:09:20.859Z,18.60
2023-04-24T09:11:50.941Z,18.50
2023-04-24T09:14:19.967Z,18.60
2023-04-24T09:16:48.896Z,18.90
2023-04-24T09:19:17.546Z,18.90
2023-04-24T09:21:48.633Z,18.90
2023-04-24T09:24:21.954Z,19.00
2023-04-24T09:26:51.385Z,19.10
2023-04-24T09:29:20.841Z,19.30
2023-04-24T09:31:49.395Z,19.60
2023-04-24T09:34:24.025Z,19.80
2023-04-24T09:36:53.163Z,19.90
2023-04-24T09:39:23.171Z,19.80
2023-04-24T09:41:53.060Z,19.60
2023-04-24T09:44:23.021Z,19.60
2023-04-24T09:46:53.404Z,19.80
2023-04-24T09:49:26.048Z,19.70
2023-04-24T09:52:11.991Z,19.70
2023-04-24T09:54:42.461Z,19.90
2023-04-24T09:57:11.303Z,20.00
2023-04-24T09:59:45.074Z,20.30
2023-04-24T10:02:20.479Z,20.40
2023-04-24T10:04:57.918Z,20.60
2023-04-24T10:07:28.503Z,20.90
2023-04-24T10:09:58.750Z,20.90
2023-04-24T10:12:30.256Z,20.60
2023-04-24T10:14:59.757Z,20.40
2023-04-24T10:17:29.453Z,20.40
2023-04-24T10:19:58.475Z,20.30
2023-04-24T10:22:27.980Z,20.30
2023-04-24T10:24:58.121Z,20.30
2023-04-24T10:27:28.940Z,20.00
2023-04-24T10:29:58.020Z,19.60
2023-04-24T10:32:27.083Z,18.90
2023-04-24T10:34:57.598Z,18.60
2023-04-24T10:37:28.081Z,18.60
2023-04-24T10:39:58.168Z,18.30
2023-04-24T10:42:29.270Z,18.20
2023-04-24T10:44:59.349Z,18.10
2023-04-24T10:47:28.060Z,18.00
2023-04-24T10:50:01.048Z,17.80
2023-04-24T10:52:46.553Z,17.80
2023-04-24T10:55:17.023Z,17.70
2023-04-24T10:58:03.866Z,17.50
2023-04-24T11:00:33.098Z,17.50
2023-04-24T11:03:01.906Z,17.40
2023-04-24T11:05:53.814Z,17.10
2023-04-24T11:08:34.251Z,17.00
2023-04-24T11:11:10.136Z,17.20
2023-04-24T11:14:05.275Z,17.30
2023-04-24T11:16:35.582Z,17.40
2023-04-24T11:19:06.532Z,17.30
2023-04-24T11:21:43.124Z,17.10
2023-04-24T11:24:34.954Z,17.00
2023-04-24T11:27:15.287Z,17.00
2023-04-24T11:29:46.108Z,17.00
2023-04-24T11:32:36.925Z,17.00
2023-04-24T11:35:08.001Z,17.00
2023-04-24T12:07:07.118Z,17.80
2023-04-24T12:09:47.594Z,17.80
2023-04-24T12:12:18.132Z,18.00
2023-04-24T12:14:54.952Z,18.00
2023-04-24T12:17:29.403Z,18.10
2023-04-24T12:20:03.460Z,18.10
2023-04-24T12:22:50.690Z,18.30
2023-04-24T12:25:20.559Z,18.40
2023-04-24T12:27:54.652Z,18.60
2023-04-24T12:30:23.725Z,18.50
2023-04-24T12:32:56.015Z,18.40
2023-04-24T12:35:26.610Z,18.20
2023-04-24T12:37:56.791Z,18.20
2023-04-24T12:40:30.056Z,18.00
2023-04-24T12:42:58.606Z,18.00
2023-04-24T12:45:29.000Z,18.10
2023-04-24T12:47:57.545Z,18.10
2023-04-24T12:50:26.289Z,18.00
2023-04-24T12:52:56.369Z,18.20
2023-04-24T12:55:25.074Z,18.10
2023-04-24T12:57:54.600Z,17.80
2023-04-24T13:00:23.463Z,17.50
2023-04-24T13:02:52.229Z,17.30
2023-04-24T13:05:22.005Z,17.10
2023-04-24T13:07:51.558Z,17.00
2023-04-24T13:10:21.737Z,17.20
2023-04-24T13:12:50.755Z,17.10
2023-04-24T13:15:19.467Z,16.90
2023-04-24T13:17:48.234Z,16.80
2023-04-24T13:20:16.917Z,16.60
2023-04-24T13:22:45.820Z,16.60
2023-04-24T13:25:18.077Z,16.50
2023-04-24T13:27:48.406Z,16.40
2023-04-24T13:30:17.058Z,16.30
2023-04-24T13:32:45.987Z,16.20
2023-04-24T13:35:14.551Z,16.10
2023-04-24T13:37:43.186Z,15.80
2023-04-24T13:40:13.456Z,15.70
2023-04-24T13:42:42.704Z,15.60
2023-04-24T13:45:24.212Z,15.50
2023-04-24T13:47:54.749Z,15.50
2023-04-24T13:50:23.899Z,15.50
2023-04-24T13:52:52.476Z,15.50
2023-04-24T13:55:21.112Z,15.30
2023-04-24T13:57:49.628Z,15.40
2023-04-24T14:00:21.098Z,15.30
2023-04-24T14:02:49.920Z,15.30
2023-04-24T14:05:19.401Z,15.20
2023-04-24T14:07:48.016Z,15.20
2023-04-24T14:10:16.682Z,15.10
2023-04-24T14:12:45.517Z,15.00
2023-04-24T14:15:14.546Z,14.70
2023-04-24T14:17:44.554Z,14.70
2023-04-24T14:20:14.326Z,14.70
2023-04-24T14:22:43.124Z,14.50
2023-04-24T14:25:12.243Z,14.30
2023-04-24T14:27:41.327Z,14.20
2023-04-24T14:30:10.776Z,14.30
2023-04-24T14:32:40.784Z,14.10
2023-04-24T14:35:11.249Z,14.10
2023-04-24T14:37:42.251Z,14.10
2023-04-24T14:40:29.746Z,14.00
2023-04-24T14:43:00.465Z,13.80
2023-04-24T14:45:29.587Z,13.70
2023-04-24T14:47:58.818Z,13.70
2023-04-24T14:50:29.369Z,13.60
2023-04-24T14:52:59.250Z,13.50
2023-04-24T14:55:28.127Z,13.30
2023-04-24T15:01:08.921Z,13.00
2023-04-24T15:03:37.624Z,13.00
2023-04-24T15:06:08.277Z,12.90
2023-04-24T15:08:36.869Z,12.90
2023-04-24T15:11:05.587Z,12.80
2023-04-24T15:13:34.176Z,12.80
2023-04-24T15:16:03.254Z,12.80
2023-04-24T15:18:32.262Z,12.80
2023-04-24T15:21:00.848Z,12.70
2023-04-24T15:23:30.794Z,12.70
2023-04-24T15:25:59.449Z,12.70
2023-04-24T15:28:28.100Z,12.70
2023-04-24T15:30:56.729Z,12.60
2023-04-24T15:33:26.982Z,12.60
2023-04-24T15:35:55.544Z,12.60
2023-04-24T15:38:24.154Z,12.60
2023-04-24T15:40:54.112Z,12.60
2023-04-24T15:43:23.368Z,12.50
2023-04-24T15:45:52.422Z,12.50
2023-04-24T15:48:21.241Z,12.50
2023-04-24T15:50:49.894Z,12.50
2023-04-24T15:53:22.468Z,12.40
2023-04-24T15:55:53.538Z,12.50
2023-04-24T15:58:22.693Z,12.50
2023-04-24T16:00:51.272Z,12.40
2023-04-24T16:03:19.847Z,12.50
2023-04-24T16:05:48.542Z,12.50
2023-04-24T16:08:17.583Z,12.50
2023-04-24T16:10:47.154Z,12.50
2023-04-24T16:13:18.707Z,12.50
2023-04-24T16:15:48.256Z,12.50
2023-04-24T16:18:17.616Z,12.50
2023-04-24T16:20:46.267Z,12.60
2023-04-24T16:23:15.956Z,12.60
2023-04-24T16:25:44.636Z,12.50
2023-04-24T16:28:14.132Z,12.50
2023-04-24T16:30:44.184Z,12.50
2023-04-24T16:33:12.681Z,12.50
2023-04-24T16:35:41.236Z,12.50
2023-04-24T16:38:09.874Z,12.40
2023-04-24T16:40:38.575Z,12.40
2023-04-24T16:43:07.300Z,12.30
2023-04-24T16:45:36.426Z,12.30
2023-04-24T16:48:06.504Z,12.30
2023-04-24T16:50:35.196Z,12.30
2023-04-24T16:53:03.932Z,12.30
2023-04-24T16:55:32.504Z,12.30
2023-04-24T16:58:01.072Z,12.30
2023-04-24T17:00:29.620Z,12.20
2023-04-24T17:02:58.409Z,12.20
2023-04-24T17:05:28.680Z,12.00
2023-04-24T17:07:57.540Z,11.90
2023-04-24T17:10:26.279Z,11.80
2023-04-24T17:12:54.831Z,11.70
2023-04-24T17:15:23.456Z,11.60
2023-04-24T17:17:52.091Z,11.60
2023-04-24T17:20:23.290Z,11.50
2023-04-24T17:22:54.319Z,11.50
2023-04-24T17:25:22.974Z,11.50
2023-04-24T17:27:51.582Z,11.50
2023-04-24T17:30:20.311Z,11.50
2023-04-24T17:32:48.892Z,11.50
2023-04-24T17:35:17.495Z,11.40
2023-04-24T17:37:46.202Z,11.40
2023-04-24T17:40:16.728Z,11.30
2023-04-24T17:42:45.315Z,11.30
2023-04-24T17:45:14.106Z,11.20
2023-04-24T17:47:42.915Z,11.20
2023-04-24T17:50:11.964Z,11.10
2023-04-24T17:52:40.615Z,11.10
2023-04-24T17:55:09.759Z,11.10
2023-04-24T18:00:20.551Z,11.00
2023-04-24T18:02:49.846Z,11.00
2023-04-24T18:05:18.678Z,11.00
2023-04-24T18:07:47.382Z,11.00
2023-04-24T18:10:15.963Z,10.90
2023-04-24T18:13:14.445Z,10.90
2023-04-24T18:15:44.529Z,10.90
2023-04-24T18:18:13.712Z,10.90
2023-04-24T18:20:42.305Z,10.90
2023-04-24T18:23:11.075Z,10.90
2023-04-24T18:25:39.980Z,10.90
2023-04-24T18:28:08.706Z,10.90
2023-04-24T18:30:37.438Z,10.90
2023-04-24T18:33:07.505Z,10.90
2023-04-24T18:35:36.183Z,10.80
2023-04-24T18:38:04.851Z,10.80
2023-04-24T18:40:33.399Z,10.80
2023-04-24T18:43:02.037Z,10.80
2023-04-24T18:45:30.736Z,10.80
2023-04-24T18:47:59.397Z,10.80
2023-04-24T18:50:31.761Z,10.70
2023-04-24T18:53:00.436Z,10.70
2023-04-24T18:55:29.010Z,10.70
2023-04-24T18:57:57.537Z,10.70
2023-04-24T19:00:26.083Z,10.80
2023-04-24T19:02:54.768Z,10.80
2023-04-24T19:05:23.509Z,10.80
2023-04-24T19:07:53.402Z,10.80
2023-04-24T19:10:22.008Z,10.80
2023-04-24T19:12:56.403Z,10.80
2023-04-24T19:15:25.319Z,10.80
2023-04-24T19:17:53.928Z,10.80
2023-04-24T19:20:22.681Z,10.80
2023-04-24T19:22:51.931Z,10.80
2023-04-24T19:25:21.917Z,10.80
2023-04-24T19:27:50.484Z,10.80
2023-04-24T19:30:19.100Z,10.80
2023-04-24T19:32:47.708Z,10.80
2023-04-24T19:35:16.516Z,10.70
2023-04-24T19:37:45.130Z,10.70
2023-04-24T19:40:13.909Z,10.70
2023-04-24T19:42:44.737Z,10.70
2023-04-24T19:45:14.339Z,10.80
2023-04-24T19:47:43.392Z,10.80
2023-04-24T19:50:12.517Z,10.80
2023-04-24T19:52:41.138Z,10.70
2023-04-24T19:55:10.684Z,10.70
2023-04-24T19:57:39.461Z,10.70
2023-04-24T20:00:11.872Z,10.70
2023-04-24T20:02:40.587Z,10.70
2023-04-24T20:05:10.096Z,10.80
2023-04-24T20:07:38.934Z,10.80
2023-04-24T20:10:08.833Z,10.80
2023-04-24T20:12:37.460Z,10.70
2023-04-24T20:15:06.838Z,10.70
2023-04-24T20:17:37.672Z,10.70
2023-04-24T20:20:07.370Z,10.70
2023-04-24T20:22:38.956Z,10.70
2023-04-24T20:25:08.864Z,10.70
2023-04-24T20:27:37.572Z,10.70
2023-04-24T20:30:10.523Z,10.70
2023-04-24T20:32:40.971Z,10.80
2023-04-24T20:35:12.020Z,10.80
2023-04-24T20:37:41.468Z,10.80
2023-04-24T20:40:10.911Z,10.70
2023-04-24T20:42:39.589Z,10.80
2023-04-24T20:45:09.188Z,10.70
2023-04-24T20:47:37.756Z,10.70
2023-04-24T20:50:09.146Z,10.70
2023-04-24T20:52:37.716Z,10.70
2023-04-24T20:55:07.366Z,10.70
2023-04-24T20:57:35.923Z,10.70
2023-04-24T21:00:13.009Z,10.70
2023-04-24T21:02:41.675Z,10.70
2023-04-24T21:05:12.762Z,10.70
2023-04-24T21:07:41.408Z,10.70
2023-04-24T21:10:11.112Z,10.70
2023-04-24T21:12:39.705Z,10.60
2023-04-24T21:15:09.302Z,10.70
2023-04-24T21:17:37.943Z,10.70
2023-04-24T21:20:07.533Z,10.70
2023-04-24T21:22:37.691Z,10.70
2023-04-24T21:25:07.198Z,10.70
2023-04-24T21:27:35.859Z,10.70
2023-04-24T21:30:05.289Z,10.70
2023-04-24T21:32:34.221Z,10.70
2023-04-24T21:35:03.060Z,10.70
2023-04-24T21:37:33.660Z,10.70
2023-04-24T21:40:04.886Z,10.70
2023-04-24T21:42:33.732Z,10.70
2023-04-24T21:45:02.378Z,10.70
2023-04-24T21:47:33.149Z,10.70
2023-04-24T21:50:01.869Z,10.70
2023-04-24T21:52:34.415Z,10.70
2023-04-24T21:55:04.622Z,10.70
2023-04-24T21:57:33.426Z,10.70
2023-04-24T22:00:02.098Z,10.70
2023-04-24T22:02:34.889Z,10.70
2023-04-24T22:05:04.665Z,10.60
2023-04-24T22:07:35.240Z,10.60
2023-04-24T22:10:06.610Z,10.60
2023-04-24T22:12:35.301Z,10.60
2023-04-24T22:15:04.223Z,10.60
2023-04-24T22:17:33.717Z,10.60
2023-04-24T22:20:03.033Z,10.50
2023-04-24T22:22:32.148Z,10.60
2023-04-24T22:25:00.868Z,10.50
2023-04-24T22:27:30.830Z,10.60
2023-04-24T22:29:59.406Z,10.50
2023-04-24T22:32:29.207Z,10.50
2023-04-24T22:34:57.832Z,10.50
2023-04-24T22:37:27.237Z,10.50
2023-04-24T22:39:56.319Z,10.50
2023-04-24T22:42:25.482Z,10.50
2023-04-24T22:44:55.432Z,10.50
2023-04-24T22:47:24.144Z,10.50
2023-04-24T22:49:53.882Z,10.50
2023-04-24T22:52:22.613Z,10.40
2023-04-24T22:54:52.182Z,10.40
2023-04-24T22:57:21.329Z,10.40
2023-04-24T22:59:50.002Z,10.40
2023-04-24T23:02:19.982Z,10.40
2023-04-24T23:04:48.637Z,10.40
2023-04-24T23:07:17.272Z,10.30
2023-04-24T23:09:45.808Z,10.30
2023-04-24T23:12:14.349Z,10.40
2023-04-24T23:14:42.916Z,10.40
2023-04-24T23:17:11.398Z,10.50
2023-04-24T23:19:41.304Z,10.50
2023-04-24T23:22:09.948Z,10.50
2023-04-24T23:24:38.676Z,10.50
2023-04-24T23:27:07.199Z,10.50
2023-04-24T23:29:35.732Z,10.60
2023-04-24T23:32:04.346Z,10.60
2023-04-24T23:34:34.087Z,10.60
2023-04-24T23:37:04.103Z,10.60
2023-04-24T23:39:32.723Z,10.60
2023-04-24T23:42:02.703Z,10.60
2023-04-24T23:44:31.673Z,10.50
2023-04-24T23:47:00.138Z,10.50
2023-04-24T23:49:28.722Z,10.50
2023-04-24T23:51:57.524Z,10.40
2023-04-24T23:54:27.584Z,10.40
2023-04-24T23:56:56.286Z,10.40
2023-04-24T23:59:24.809Z,10.40
